createdAt,value
2018-06-03T00:00:38.045Z,19.24
2018-06-03T00:03:08.624Z,19.06
2018-06-03T00:05:39.092Z,18.91
2018-06-03T00:08:09.309Z,18.86
2018-06-03T00:10:39.944Z,18.86
2018-06-03T00:13:10.430Z,18.98
2018-06-03T00:15:40.905Z,18.92
2018-06-03T00:18:11.423Z,18.99
2018-06-03T00:20:58.765Z,19.08
2018-06-03T00:23:29.321Z,18.95
2018-06-03T00:25:59.790Z,19.18
2018-06-03T00:28:30.334Z,19.12
2018-06-03T00:31:01.048Z,19.12
2018-06-03T00:33:31.817Z,19.12
2018-06-03T00:36:19.070Z,19.22
2018-06-03T00:38:50.762Z,19.17
2018-06-03T00:41:21.426Z,19.14
2018-06-03T00:43:52.041Z,19.18
2018-06-03T00:46:23.350Z,19.24
2018-06-03T00:48:53.899Z,19.20
2018-06-03T00:51:24.814Z,19.12
2018-06-03T00:53:55.345Z,19.03
2018-06-03T00:56:42.706Z,18.87
2018-06-03T00:59:14.726Z,18.82
2018-06-03T01:01:45.222Z,18.76
2018-06-03T01:04:15.808Z,18.75
2018-06-03T01:06:46.829Z,18.77
2018-06-03T01:09:17.379Z,18.75
2018-06-03T01:11:49.037Z,18.73
2018-06-03T01:14:20.265Z,18.56
2018-06-03T01:16:51.097Z,18.49
2018-06-03T01:19:21.756Z,18.39
2018-06-03T01:21:52.329Z,18.29
2018-06-03T01:24:22.799Z,18.26
2018-06-03T01:26:53.543Z,18.26
2018-06-03T01:29:24.260Z,18.33
2018-06-03T01:31:54.891Z,18.26
2018-06-03T01:34:25.491Z,18.16
2018-06-03T01:36:57.990Z,18.06
2018-06-03T01:39:28.527Z,18.02
2018-06-03T01:41:59.085Z,17.97
2018-06-03T01:44:29.605Z,17.95
2018-06-03T01:47:00.113Z,17.95
2018-06-03T01:49:31.278Z,17.92
2018-06-03T01:52:02.925Z,18.06
2018-06-03T01:54:33.488Z,18.18
2018-06-03T01:57:04.176Z,18.24
2018-06-03T01:59:34.643Z,18.18
2018-06-03T02:02:06.221Z,18.16
2018-06-03T02:04:36.674Z,18.19
2018-06-03T02:07:07.302Z,18.17
2018-06-03T02:09:37.822Z,18.20
2018-06-03T02:12:08.521Z,18.28
2018-06-03T02:14:39.387Z,18.22
2018-06-03T02:17:10.280Z,18.25
2018-06-03T02:19:40.765Z,18.24
2018-06-03T02:22:11.719Z,18.25
2018-06-03T02:24:42.252Z,18.23
2018-06-03T02:27:15.253Z,18.39
2018-06-03T02:29:46.398Z,18.55
2018-06-03T02:32:18.530Z,18.52
2018-06-03T02:34:49.160Z,18.41
2018-06-03T02:37:19.837Z,18.32
2018-06-03T02:39:50.383Z,18.08
2018-06-03T02:42:22.000Z,17.94
2018-06-03T02:44:52.521Z,17.90
2018-06-03T02:47:23.505Z,17.81
2018-06-03T02:49:54.070Z,17.81
2018-06-03T02:52:25.737Z,17.83
2018-06-03T02:54:56.783Z,17.80
2018-06-03T02:57:28.369Z,17.76
2018-06-03T02:59:59.198Z,17.76
2018-06-03T03:02:29.380Z,17.66
2018-06-03T03:04:59.766Z,17.57
2018-06-03T03:07:30.151Z,17.47
2018-06-03T03:10:00.756Z,17.40
2018-06-03T03:12:31.712Z,17.41
2018-06-03T03:15:02.530Z,17.42
2018-06-03T03:17:32.984Z,17.41
2018-06-03T03:20:04.125Z,17.41
2018-06-03T03:22:34.621Z,17.48
2018-06-03T03:25:05.259Z,17.47
2018-06-03T03:27:35.860Z,17.46
2018-06-03T03:30:06.486Z,17.46
2018-06-03T03:32:37.390Z,17.45
2018-06-03T03:35:08.378Z,17.41
2018-06-03T03:37:39.135Z,17.47
2018-06-03T03:40:10.101Z,17.45
2018-06-03T03:42:41.036Z,17.34
2018-06-03T03:45:11.828Z,17.24
2018-06-03T03:47:42.827Z,17.16
2018-06-03T03:50:14.120Z,17.15
2018-06-03T03:52:44.760Z,17.15
2018-06-03T03:55:16.058Z,17.09
2018-06-03T03:57:46.526Z,17.18
2018-06-03T04:00:17.296Z,17.17
2018-06-03T04:02:48.358Z,17.20
2018-06-03T04:05:18.928Z,17.24
2018-06-03T04:07:49.043Z,17.44
2018-06-03T04:10:19.520Z,17.53
2018-06-03T04:12:50.001Z,17.71
2018-06-03T04:15:20.656Z,17.87
2018-06-03T04:17:51.268Z,17.99
2018-06-03T04:20:21.626Z,17.82
2018-06-03T04:22:52.774Z,17.75
2018-06-03T04:25:23.394Z,17.83
2018-06-03T04:27:53.939Z,17.80
2018-06-03T04:30:24.717Z,17.77
2018-06-03T04:32:55.484Z,17.81
2018-06-03T04:35:26.018Z,17.94
2018-06-03T04:37:56.713Z,17.88
2018-06-03T04:40:27.266Z,17.83
2018-06-03T04:42:58.249Z,17.81
2018-06-03T04:45:29.012Z,17.84
2018-06-03T04:48:00.852Z,17.92
2018-06-03T04:50:31.470Z,17.96
2018-06-03T04:53:02.936Z,18.18
2018-06-03T04:55:33.790Z,18.46
2018-06-03T04:58:04.585Z,18.54
2018-06-03T05:00:35.222Z,18.64
2018-06-03T05:03:07.401Z,18.78
2018-06-03T05:05:37.863Z,18.82
2018-06-03T05:08:08.398Z,18.93
2018-06-03T05:10:39.218Z,19.06
2018-06-03T05:13:09.746Z,19.11
2018-06-03T05:15:40.250Z,19.13
2018-06-03T05:18:11.921Z,19.19
2018-06-03T05:20:42.421Z,19.23
2018-06-03T05:23:14.065Z,19.38
2018-06-03T05:25:44.617Z,19.73
2018-06-03T05:28:15.371Z,19.85
2018-06-03T05:30:45.969Z,20.09
2018-06-03T05:33:16.216Z,20.22
2018-06-03T05:35:46.727Z,20.36
2018-06-03T05:38:17.173Z,20.58
2018-06-03T05:40:47.913Z,20.75
2018-06-03T05:43:18.785Z,20.86
2018-06-03T05:45:49.588Z,21.04
2018-06-03T05:48:20.281Z,21.20
2018-06-03T05:50:50.873Z,21.24
2018-06-03T05:53:21.827Z,21.12
2018-06-03T05:55:52.431Z,21.25
2018-06-03T05:58:24.054Z,21.04
2018-06-03T06:00:55.006Z,20.78
2018-06-03T06:03:25.753Z,20.82
2018-06-03T06:05:56.751Z,20.82
2018-06-03T06:08:27.868Z,20.93
2018-06-03T06:10:58.642Z,21.08
2018-06-03T06:13:29.218Z,21.23
2018-06-03T06:15:59.748Z,21.49
2018-06-03T06:18:30.421Z,21.65
2018-06-03T06:21:01.238Z,21.62
2018-06-03T06:23:31.891Z,21.74
2018-06-03T06:26:02.447Z,21.81
2018-06-03T06:28:32.934Z,21.84
2018-06-03T06:31:03.265Z,21.95
2018-06-03T06:33:34.826Z,22.03
2018-06-03T06:36:06.421Z,22.16
2018-06-03T06:38:37.216Z,22.16
2018-06-03T06:41:07.881Z,22.19
2018-06-03T06:43:38.875Z,22.19
2018-06-03T06:46:09.481Z,22.23
2018-06-03T06:48:40.149Z,22.34
2018-06-03T06:51:11.431Z,22.43
2018-06-03T06:53:42.294Z,22.40
2018-06-03T06:56:12.829Z,22.51
2018-06-03T06:58:43.422Z,22.56
2018-06-03T07:01:14.936Z,22.64
2018-06-03T07:03:45.877Z,22.67
2018-06-03T07:06:16.377Z,22.67
2018-06-03T07:08:46.942Z,22.69
2018-06-03T07:11:18.267Z,22.63
2018-06-03T07:13:48.755Z,22.56
2018-06-03T07:16:19.357Z,22.63
2018-06-03T07:18:51.246Z,22.67
2018-06-03T07:21:21.991Z,22.72
2018-06-03T07:23:52.713Z,22.90
2018-06-03T07:26:23.616Z,23.04
2018-06-03T07:28:55.531Z,23.04
2018-06-03T07:31:26.134Z,23.11
2018-06-03T07:33:56.681Z,23.17
2018-06-03T07:36:27.511Z,23.21
2018-06-03T07:38:59.075Z,22.95
2018-06-03T07:41:29.613Z,22.94
2018-06-03T07:44:00.539Z,22.95
2018-06-03T07:46:31.312Z,22.99
2018-06-03T07:49:02.138Z,23.13
2018-06-03T07:51:33.126Z,23.19
2018-06-03T07:54:03.645Z,23.18
2018-06-03T07:56:34.010Z,23.32
2018-06-03T07:59:05.776Z,23.46
2018-06-03T08:01:36.599Z,23.55
2018-06-03T08:04:07.954Z,23.68
2018-06-03T08:06:38.526Z,23.61
2018-06-03T08:09:09.145Z,23.69
2018-06-03T08:11:39.691Z,23.82
2018-06-03T08:14:11.284Z,23.82
2018-06-03T08:16:41.903Z,23.88
2018-06-03T08:19:12.616Z,23.92
2018-06-03T08:21:43.284Z,23.92
2018-06-03T08:24:15.959Z,23.94
2018-06-03T08:26:46.579Z,23.96
2018-06-03T08:29:17.422Z,24.08
2018-06-03T08:31:48.273Z,24.13
2018-06-03T08:34:19.094Z,24.23
2018-06-03T08:36:49.736Z,24.20
2018-06-03T08:39:20.313Z,24.21
2018-06-03T08:41:50.934Z,24.30
2018-06-03T08:44:21.711Z,24.42
2018-06-03T08:46:52.272Z,24.55
2018-06-03T08:49:23.145Z,24.60
2018-06-03T08:51:54.201Z,24.68
2018-06-03T08:54:24.809Z,24.76
2018-06-03T08:56:55.085Z,24.92
2018-06-03T08:59:26.705Z,25.04
2018-06-03T09:01:57.619Z,25.14
2018-06-03T09:04:28.282Z,25.21
2018-06-03T09:06:58.912Z,25.21
2018-06-03T09:09:29.553Z,25.26
2018-06-03T09:11:59.999Z,25.40
2018-06-03T09:14:30.534Z,25.53
2018-06-03T09:17:01.403Z,25.62
2018-06-03T09:19:32.394Z,25.61
2018-06-03T09:22:02.937Z,25.73
2018-06-03T09:24:33.642Z,25.82
2018-06-03T09:27:04.327Z,25.84
2018-06-03T09:29:36.369Z,25.77
2018-06-03T09:32:06.648Z,25.73
2018-06-03T09:34:37.669Z,25.63
2018-06-03T09:37:08.051Z,25.53
2018-06-03T09:39:38.715Z,25.53
2018-06-03T09:42:09.593Z,25.63
2018-06-03T09:44:39.816Z,25.78
2018-06-03T09:47:11.806Z,25.89
2018-06-03T09:49:42.470Z,26.01
2018-06-03T09:52:13.822Z,26.04
2018-06-03T09:54:44.515Z,26.05
2018-06-03T09:57:15.437Z,26.13
2018-06-03T09:59:46.125Z,26.26
2018-06-03T10:02:16.856Z,26.32
2018-06-03T10:04:48.042Z,26.45
2018-06-03T10:07:18.532Z,26.66
2018-06-03T10:09:49.359Z,26.83
2018-06-03T10:12:19.942Z,27.00
2018-06-03T10:14:50.694Z,27.19
2018-06-03T10:17:21.301Z,27.37
2018-06-03T10:19:52.043Z,27.46
2018-06-03T10:22:22.630Z,27.55
2018-06-03T10:24:53.116Z,27.61
2018-06-03T10:27:23.633Z,27.75
2018-06-03T10:29:54.202Z,27.73
2018-06-03T10:32:24.714Z,27.77
2018-06-03T10:34:55.227Z,27.88
2018-06-03T10:37:25.803Z,27.84
2018-06-03T10:39:56.624Z,27.74
2018-06-03T10:42:27.291Z,27.52
2018-06-03T10:44:57.417Z,27.56
2018-06-03T10:47:27.831Z,27.57
2018-06-03T10:49:59.545Z,27.63
2018-06-03T10:52:30.089Z,27.76
2018-06-03T10:55:00.655Z,27.98
2018-06-03T10:57:31.170Z,28.10
2018-06-03T11:00:01.771Z,28.26
2018-06-03T11:02:32.292Z,28.38
2018-06-03T11:05:02.928Z,28.49
2018-06-03T11:07:33.427Z,28.56
2018-06-03T11:10:04.322Z,28.51
2018-06-03T11:12:35.184Z,28.61
2018-06-03T11:15:06.983Z,28.79
2018-06-03T11:17:37.584Z,28.90
2018-06-03T11:20:08.368Z,29.09
2018-06-03T11:22:38.929Z,29.15
2018-06-03T11:25:09.603Z,29.12
2018-06-03T11:27:40.791Z,29.01
2018-06-03T11:30:11.777Z,28.81
2018-06-03T11:32:42.359Z,28.77
2018-06-03T11:35:13.136Z,28.92
2018-06-03T11:37:43.715Z,28.88
2018-06-03T11:40:15.414Z,28.79
2018-06-03T11:42:46.026Z,28.58
2018-06-03T11:45:16.659Z,28.38
2018-06-03T11:47:47.255Z,28.36
2018-06-03T11:50:17.867Z,28.49
2018-06-03T11:52:48.769Z,28.78
2018-06-03T11:55:19.424Z,28.89
2018-06-03T11:58:54.090Z,29.04
2018-06-03T12:01:25.417Z,29.02
2018-06-03T12:03:56.966Z,29.26
2018-06-03T12:06:27.607Z,29.03
2018-06-03T12:08:58.212Z,28.90
2018-06-03T12:11:28.717Z,29.13
2018-06-03T12:14:00.423Z,29.30
2018-06-03T12:16:31.783Z,29.48
2018-06-03T12:19:02.291Z,29.40
2018-06-03T12:21:32.796Z,29.31
2018-06-03T12:24:03.776Z,29.02
2018-06-03T12:26:34.280Z,28.92
2018-06-03T12:29:05.927Z,28.78
2018-06-03T12:31:36.467Z,28.89
2018-06-03T12:34:08.046Z,28.88
2018-06-03T12:36:38.634Z,29.25
2018-06-03T12:39:10.885Z,29.36
2018-06-03T12:41:41.442Z,29.52
2018-06-03T12:44:11.962Z,29.70
2018-06-03T12:46:42.527Z,29.97
2018-06-03T12:49:14.146Z,30.15
2018-06-03T12:51:44.645Z,30.27
2018-06-03T12:54:16.134Z,30.09
2018-06-03T12:56:46.650Z,30.07
2018-06-03T12:59:16.875Z,30.02
2018-06-03T13:01:47.284Z,30.17
2018-06-03T13:04:17.807Z,30.28
2018-06-03T13:06:48.362Z,30.33
2018-06-03T13:09:20.024Z,30.50
2018-06-03T13:11:50.754Z,30.52
2018-06-03T13:14:22.285Z,30.39
2018-06-03T13:16:52.899Z,29.93
2018-06-03T13:19:24.527Z,29.94
2018-06-03T13:21:54.852Z,30.22
2018-06-03T13:24:25.303Z,30.41
2018-06-03T13:26:55.816Z,30.49
2018-06-03T13:29:26.384Z,30.72
2018-06-03T13:31:57.000Z,30.78
2018-06-03T13:34:27.492Z,31.00
2018-06-03T13:36:57.979Z,31.04
2018-06-03T13:39:28.183Z,30.91
2018-06-03T13:41:58.645Z,30.63
2018-06-03T13:44:29.352Z,30.42
2018-06-03T13:46:59.862Z,30.31
2018-06-03T13:49:30.522Z,30.43
2018-06-03T13:52:01.033Z,30.55
2018-06-03T13:54:32.523Z,30.58
2018-06-03T13:57:03.140Z,30.85
2018-06-03T13:59:34.734Z,31.01
2018-06-03T14:02:05.558Z,31.17
2018-06-03T14:04:36.076Z,31.07
2018-06-03T14:07:06.759Z,30.80
2018-06-03T14:09:37.299Z,30.32
2018-06-03T14:12:08.903Z,30.12
2018-06-03T14:14:39.393Z,29.91
2018-06-03T14:17:10.983Z,30.04
2018-06-03T14:19:41.836Z,30.13
2018-06-03T14:22:12.588Z,30.28
2018-06-03T14:24:43.106Z,30.29
2018-06-03T14:27:13.587Z,30.40
2018-06-03T14:29:44.278Z,30.58
2018-06-03T14:32:15.842Z,30.82
2018-06-03T14:34:46.483Z,31.04
2018-06-03T14:37:17.044Z,30.85
2018-06-03T14:39:47.893Z,30.85
2018-06-03T14:42:18.448Z,30.87
2018-06-03T14:44:49.053Z,30.90
2018-06-03T14:47:20.553Z,30.86
2018-06-03T14:49:51.165Z,31.29
2018-06-03T14:52:25.605Z,31.52
2018-06-03T14:54:56.120Z,31.66
2018-06-03T14:57:26.719Z,31.42
2018-06-03T14:59:57.220Z,31.42
2018-06-03T15:02:29.796Z,31.41
2018-06-03T15:05:00.348Z,31.32
2018-06-03T15:07:31.910Z,31.20
2018-06-03T15:10:02.444Z,31.00
2018-06-03T15:12:32.962Z,30.87
2018-06-03T15:15:03.532Z,30.77
2018-06-03T15:17:34.184Z,31.00
2018-06-03T15:20:04.994Z,31.07
2018-06-03T15:22:36.258Z,30.89
2018-06-03T15:25:06.865Z,30.79
2018-06-03T15:27:39.117Z,30.72
2018-06-03T15:30:09.737Z,30.62
2018-06-03T15:32:40.298Z,30.68
2018-06-03T15:35:10.900Z,30.99
2018-06-03T15:37:42.416Z,31.08
2018-06-03T15:40:13.043Z,31.28
2018-06-03T15:42:44.623Z,31.43
2018-06-03T15:45:15.509Z,31.35
2018-06-03T15:47:46.090Z,31.55
2018-06-03T15:50:16.722Z,31.68
2018-06-03T15:52:47.250Z,31.77
2018-06-03T15:55:17.735Z,31.80
2018-06-03T15:57:50.288Z,31.90
2018-06-03T16:00:20.860Z,32.06
2018-06-03T16:02:51.383Z,31.92
2018-06-03T16:05:22.082Z,31.68
2018-06-03T16:07:53.038Z,31.36
2018-06-03T16:10:23.600Z,31.37
2018-06-03T16:12:55.195Z,31.27
2018-06-03T16:15:25.708Z,31.09
2018-06-03T16:17:56.286Z,30.92
2018-06-03T16:20:26.681Z,30.73
2018-06-03T16:22:57.182Z,30.60
2018-06-03T16:25:27.806Z,30.72
2018-06-03T16:27:58.970Z,30.94
2018-06-03T16:30:29.836Z,31.27
2018-06-03T16:33:00.311Z,31.55
2018-06-03T16:35:30.946Z,31.76
2018-06-03T16:38:02.386Z,31.89
2018-06-03T16:40:33.156Z,31.83
2018-06-03T16:43:03.684Z,32.12
2018-06-03T16:45:34.261Z,32.23
2018-06-03T16:48:04.851Z,32.34
2018-06-03T16:50:36.514Z,32.31
2018-06-03T16:53:07.092Z,32.41
2018-06-03T16:55:37.724Z,32.58
2018-06-03T16:58:08.318Z,32.73
2018-06-03T17:00:38.946Z,32.81
2018-06-03T17:03:09.550Z,32.91
2018-06-03T17:05:40.071Z,33.53
2018-06-03T17:08:10.563Z,34.95
2018-06-03T17:10:42.036Z,36.60
2018-06-03T17:13:12.543Z,37.80
2018-06-03T17:15:43.194Z,38.78
2018-06-03T17:18:13.781Z,38.71
2018-06-03T17:20:44.630Z,37.87
2018-06-03T17:23:15.133Z,37.67
2018-06-03T17:25:45.601Z,37.06
2018-06-03T17:28:16.177Z,36.77
2018-06-03T17:30:46.877Z,35.94
2018-06-03T17:33:17.542Z,34.89
2018-06-03T17:35:48.149Z,34.20
2018-06-03T17:38:18.707Z,34.04
2018-06-03T17:40:49.969Z,33.66
2018-06-03T17:43:20.515Z,32.57
2018-06-03T17:45:55.679Z,31.78
2018-06-03T17:48:26.366Z,30.83
2018-06-03T17:50:57.187Z,30.22
2018-06-03T17:53:27.714Z,29.94
2018-06-03T17:55:58.275Z,29.71
2018-06-03T17:58:28.956Z,29.57
2018-06-03T18:00:59.602Z,29.39
2018-06-03T18:03:30.159Z,29.33
2018-06-03T18:06:00.884Z,29.20
2018-06-03T18:08:31.788Z,29.14
2018-06-03T18:11:03.027Z,29.19
2018-06-03T18:13:33.665Z,29.07
2018-06-03T18:16:04.295Z,29.06
2018-06-03T18:18:34.830Z,28.96
2018-06-03T18:21:06.397Z,28.85
2018-06-03T18:23:37.119Z,28.59
2018-06-03T18:26:08.799Z,28.37
2018-06-03T18:28:39.473Z,28.26
2018-06-03T18:31:10.081Z,28.20
2018-06-03T18:33:40.734Z,28.16
2018-06-03T18:36:11.264Z,28.07
2018-06-03T18:38:41.832Z,27.98
2018-06-03T18:41:12.353Z,27.88
2018-06-03T18:43:42.854Z,27.70
2018-06-03T18:46:13.409Z,27.63
2018-06-03T18:48:44.030Z,27.47
2018-06-03T18:51:15.598Z,27.35
2018-06-03T18:53:46.110Z,27.25
2018-06-03T18:56:16.675Z,27.17
2018-06-03T18:58:47.242Z,27.09
2018-06-03T19:01:17.858Z,27.00
2018-06-03T19:03:48.484Z,26.95
2018-06-03T19:06:19.126Z,26.91
2018-06-03T19:08:49.645Z,26.85
2018-06-03T19:11:20.262Z,26.73
2018-06-03T19:13:50.813Z,26.60
2018-06-03T19:16:21.339Z,26.49
2018-06-03T19:18:52.851Z,26.41
2018-06-03T19:21:23.558Z,26.37
2018-06-03T19:23:54.189Z,26.24
2018-06-03T19:26:24.793Z,26.16
2018-06-03T19:28:55.407Z,26.11
2018-06-03T19:31:27.043Z,26.08
2018-06-03T19:33:57.677Z,26.09
2018-06-03T19:36:28.363Z,25.96
2018-06-03T19:38:58.888Z,25.82
2018-06-03T19:41:29.290Z,25.75
2018-06-03T19:43:59.781Z,25.69
2018-06-03T19:46:30.409Z,25.73
2018-06-03T19:49:00.939Z,25.78
2018-06-03T19:51:31.698Z,25.64
2018-06-03T19:54:03.180Z,25.58
2018-06-03T19:56:33.815Z,25.52
2018-06-03T19:59:04.444Z,25.48
2018-06-03T20:01:34.666Z,25.48
2018-06-03T20:04:06.487Z,25.37
2018-06-03T20:06:37.057Z,25.36
2018-06-03T20:09:09.056Z,25.40
2018-06-03T20:11:39.671Z,25.47
2018-06-03T20:14:11.207Z,25.41
2018-06-03T20:16:41.743Z,25.49
2018-06-03T20:19:13.376Z,25.55
2018-06-03T20:21:43.945Z,25.55
2018-06-03T20:24:14.430Z,25.53
2018-06-03T20:26:44.988Z,25.62
2018-06-03T20:29:16.601Z,25.69
2018-06-03T20:31:47.209Z,25.71
2018-06-03T20:34:18.056Z,25.42
2018-06-03T20:36:48.559Z,25.44
2018-06-03T20:39:19.272Z,25.30
2018-06-03T20:41:49.857Z,25.08
2018-06-03T20:44:20.675Z,24.88
2018-06-03T20:46:51.181Z,24.63
2018-06-03T20:49:22.663Z,24.44
2018-06-03T20:51:53.150Z,24.25
2018-06-03T20:54:23.810Z,24.03
2018-06-03T20:56:54.303Z,23.83
2018-06-03T20:59:25.428Z,23.64
2018-06-03T21:01:56.812Z,23.52
2018-06-03T21:04:27.664Z,23.33
2018-06-03T21:06:58.156Z,23.13
2018-06-03T21:09:29.723Z,22.95
2018-06-03T21:11:59.801Z,22.79
2018-06-03T21:14:30.239Z,22.78
2018-06-03T21:17:00.715Z,22.73
2018-06-03T21:19:32.194Z,22.75
2018-06-03T21:22:02.763Z,22.76
2018-06-03T21:24:34.221Z,22.85
2018-06-03T21:27:04.750Z,22.90
2018-06-03T21:29:36.240Z,22.86
2018-06-03T21:32:06.778Z,22.82
2018-06-03T21:34:37.273Z,22.71
2018-06-03T21:37:07.767Z,22.67
2018-06-03T21:39:38.283Z,22.61
2018-06-03T21:42:08.824Z,22.56
2018-06-03T21:44:39.296Z,22.58
2018-06-03T21:47:09.802Z,22.47
2018-06-03T21:49:40.158Z,22.50
2018-06-03T21:52:10.522Z,22.45
2018-06-03T21:54:41.985Z,22.41
2018-06-03T21:57:12.438Z,22.42
2018-06-03T21:59:42.926Z,22.40
2018-06-03T22:02:13.393Z,22.32
2018-06-03T22:04:44.121Z,22.28
2018-06-03T22:07:14.595Z,22.22
2018-06-03T22:09:45.116Z,22.07
2018-06-03T22:12:15.625Z,21.96
2018-06-03T22:14:46.097Z,21.81
2018-06-03T22:17:16.623Z,21.83
2018-06-03T22:19:48.089Z,21.78
2018-06-03T22:22:18.787Z,21.75
2018-06-03T22:24:49.276Z,21.81
2018-06-03T22:27:19.780Z,21.82
2018-06-03T22:29:51.426Z,21.75
2018-06-03T22:32:21.865Z,21.72
2018-06-03T22:34:52.385Z,21.62
2018-06-03T22:37:22.909Z,21.51
2018-06-03T22:39:53.372Z,21.41
2018-06-03T22:42:24.152Z,21.35
2018-06-03T22:44:54.741Z,21.41
2018-06-03T22:47:25.217Z,21.43
2018-06-03T22:49:55.811Z,21.36
2018-06-03T22:52:27.509Z,21.40
2018-06-03T22:54:58.968Z,21.36
2018-06-03T22:57:53.786Z,21.28
2018-06-03T23:00:31.063Z,21.17
2018-06-03T23:03:06.685Z,21.07
2018-06-03T23:05:37.170Z,21.04
2018-06-03T23:08:08.979Z,21.02
2018-06-03T23:10:39.407Z,21.04
2018-06-03T23:13:09.896Z,21.08
2018-06-03T23:15:40.629Z,20.97
2018-06-03T23:18:11.106Z,20.81
2018-06-03T23:20:41.528Z,20.69
2018-06-03T23:23:12.037Z,20.65
2018-06-03T23:25:42.468Z,20.70
2018-06-03T23:28:12.930Z,20.69
2018-06-03T23:30:43.377Z,20.69
2018-06-03T23:33:14.862Z,20.64
2018-06-03T23:35:45.301Z,20.60
2018-06-03T23:38:15.870Z,20.61
2018-06-03T23:40:46.333Z,20.63
2018-06-03T23:43:16.805Z,20.58
2018-06-03T23:45:47.262Z,20.66
2018-06-03T23:48:19.772Z,20.62
2018-06-03T23:50:50.306Z,20.62
2018-06-03T23:53:21.820Z,20.59
2018-06-03T23:55:52.597Z,20.76
2018-06-03T23:58:23.266Z,20.99
